PDT,Max TemperatureF,Mean TemperatureF,Min TemperatureF,Max Dew PointF,MeanDew PointF,Min DewpointF,Max Humidity, Mean Humidity, Min Humidity, Max Sea Level PressureIn, Mean Sea Level PressureIn, Min Sea Level PressureIn, Max VisibilityMiles, Mean VisibilityMiles, Min VisibilityMiles, Max Wind SpeedMPH, Mean Wind SpeedMPH, Max Gust SpeedMPH,PrecipitationIn, CloudCover, Events, WindDirDegrees
2012-3-1,56,47,38,49,43,37,89,78,66,30.26,30.23,30.18,10,9,2,20,9,25,0.03,5,Rain,221
2012-3-2,62,49,35,36,29,21,92,56,20,30.36,30.31,30.27,10,10,10,20,5,24,0.00,0,,58
2012-3-3,68,51,33,40,35,29,82,57,32,30.36,30.31,30.25,10,10,10,15,4,20,0.00,0,,53
2012-3-4,72,56,39,44,40,34,85,60,35,30.26,30.16,30.06,10,10,10,15,4,20,0.00,0,,64
2012-3-5,75,57,39,45,41,33,89,56,23,30.10,30.04,29.99,10,10,10,20,6,23,0.00,1,,257
2012-3-6,58,51,43,47,33,8,93,54,15,30.04,29.98,29.93,10,8,2,24,12,31,0.02,4,Rain,282
2012-3-7,63,51,38,26,17,13,49,32,14,30.19,30.14,30.05,10,10,10,20,9,28,0.00,0,,21
2012-3-8,70,53,35,32,28,23,62,42,22,30.34,30.28,30.21,10,10,10,9,2,,0.00,0,,40
2012-3-9,76,57,37,37,32,23,70,43,15,30.35,30.25,30.14,10,10,10,13,3,16,0.00,0,,271
2012-3-10,64,51,38,46,42,35,92,74,55,30.14,30.06,29.98,10,10,10,21,9,25,0.00,3,,278
2012-3-11,59,49,39,46,41,38,83,70,57,30.07,30.04,30.01,10,10,10,18,7,21,0.00,6,,230
2012-3-12,63,49,35,41,37,33,92,66,39,30.05,30.00,29.95,10,10,10,17,7,24,0.00,3,,212
2012-3-13,58,55,52,51,48,43,89,78,66,30.00,29.96,29.91,10,9,5,17,9,29,0.15,7,Rain,209
2012-3-14,60,57,54,54,51,48,86,79,72,30.13,30.05,29.97,10,10,7,15,4,20,0.05,8,Rain,226
2012-3-15,64,60,55,56,53,51,93,80,67,30.14,30.10,30.06,10,10,10,15,6,18,0.01,8,Rain,252
2012-3-16,62,55,47,52,49,41,89,79,69,30.05,29.89,29.74,10,9,2,28,9,32,0.63,8,Rain,219
2012-3-17,50,45,39,42,40,35,100,81,61,29.72,29.59,29.52,10,10,7,21,8,25,0.02,5,Rain,275
2012-3-18,54,48,42,37,34,27,76,59,41,29.95,29.77,29.65,10,10,10,29,16,38,0.01,4,Rain,260
2012-3-19,58,46,33,35,31,28,75,55,35,30.09,30.02,29.95,10,10,10,12,4,14,0.00,2,,48
2012-3-20,68,58,48,46,40,35,77,60,43,30.19,30.15,30.09,10,10,10,9,1,12,0.00,5,,20
2012-3-21,73,58,43,51,46,41,89,67,44,30.17,30.07,29.98,10,10,10,17,4,20,0.00,2,,286
2012-3-22,59,50,41,51,43,25,89,60,30,30.02,29.97,29.94,10,10,7,20,8,24,T,5,Rain,254
2012-3-23,65,51,37,38,35,29,82,54,26,30.10,30.01,29.89,10,10,10,16,4,20,0.00,1,,262
2012-3-24,52,48,44,45,40,27,93,66,38,29.91,29.87,29.83,10,9,4,17,6,21,0.04,7,Rain,286
2012-3-25,56,48,40,46,42,39,92,79,66,29.90,29.83,29.80,10,8,2,12,5,17,0.31,6,Rain,23
2012-3-26,60,51,42,43,38,35,92,66,40,30.09,30.02,29.92,10,10,10,16,5,22,0.00,2,,204
2012-3-27,60,55,49,50,45,37,89,70,51,30.04,29.96,29.89,10,9,5,23,8,29,0.75,7,Rain,196
2012-3-28,66,57,48,51,48,43,89,69,48,30.12,30.03,29.96,10,10,10,16,6,25,0.01,5,Rain,231
2012-3-29,67,56,44,49,45,43,93,71,48,30.15,30.10,30.06,10,10,10,16,4,20,0.00,1,,301
2012-3-30,68,59,50,52,50,48,89,73,56,30.11,30.01,29.91,10,10,8,18,6,22,0.00,4,,275
2012-3-31,60,53,46,52,45,37,86,70,54,30.04,29.87,29.74,10,7,2,28,13,39,0.34,7,Rain,225